HDA461 RCTP-VHHX
Flight info
| Callsign | HDA461 |
|---|---|
| Flight time | 1h 24m |
| Altitude | 36000 |
| Route | CHALI1B CHALI T3 MKG A1 ELATO |
| Aircraft | A320/M-SDE3FGHIRWY/LB1 |
Departure
| Time | 2026-04-26 23:42 |
|---|---|
| Airport | Taiwan Taoyuan International Airport (RCTP) |
Arrival
| Time | 2026-04-27 01:07 |
|---|---|
| Airport | Hong Kong International Airport Kai Tak (VHHX) |
| Time | Latitude | Longitude | Altitude | Speed | Heading |
|---|---|---|---|---|---|
| 2026-04-26 23:30 | 25.08147 | 121.24124 | 101 ft | 0 kts | 288° |
| 2026-04-26 23:33 | 25.08147 | 121.24125 | 101 ft | 0 kts | 288° |
| 2026-04-26 23:35 | 25.08141 | 121.24146 | 100 ft | 4 kts | 288° |
| 2026-04-26 23:35 | 25.08135 | 121.24168 | 98 ft | 3 kts | 288° |
| 2026-04-26 23:36 | 25.08128 | 121.24185 | 100 ft | 4 kts | 322° |
| 2026-04-26 23:36 | 25.08109 | 121.24198 | 99 ft | 4 kts | 328° |
| 2026-04-26 23:36 | 25.08086 | 121.24214 | 100 ft | 4 kts | 328° |
| 2026-04-26 23:36 | 25.08067 | 121.24225 | 100 ft | 4 kts | 19° |
| 2026-04-26 23:37 | 25.08049 | 121.24210 | 100 ft | 4 kts | 49° |
| 2026-04-26 23:37 | 25.08035 | 121.24191 | 100 ft | 0 kts | 50° |
| 2026-04-26 23:38 | 25.08036 | 121.24193 | 101 ft | 2 kts | 50° |
| 2026-04-26 23:38 | 25.08092 | 121.24264 | 101 ft | 20 kts | 49° |
| 2026-04-26 23:38 | 25.08151 | 121.24360 | 101 ft | 8 kts | 111° |
| 2026-04-26 23:39 | 25.08095 | 121.24421 | 100 ft | 18 kts | 139° |
| 2026-04-26 23:39 | 25.08053 | 121.24522 | 101 ft | 16 kts | 57° |
| 2026-04-26 23:39 | 25.08132 | 121.24631 | 100 ft | 21 kts | 49° |
| 2026-04-26 23:39 | 25.08242 | 121.24770 | 99 ft | 26 kts | 49° |
| 2026-04-26 23:40 | 25.08366 | 121.24930 | 101 ft | 29 kts | 49° |
| 2026-04-26 23:40 | 25.08442 | 121.25052 | 99 ft | 10 kts | 115° |
| 2026-04-26 23:40 | 25.08385 | 121.25123 | 96 ft | 17 kts | 140° |
| 2026-04-26 23:40 | 25.08280 | 121.25139 | 93 ft | 18 kts | 223° |
| 2026-04-26 23:41 | 25.08258 | 121.25112 | 93 ft | 0 kts | 228° |
| 2026-04-26 23:41 | 25.08244 | 121.25094 | 93 ft | 18 kts | 229° |
| 2026-04-26 23:41 | 25.07984 | 121.24765 | 95 ft | 92 kts | 229° |
| 2026-04-26 23:41 | 25.07436 | 121.24070 | 92 ft | 146 kts | 229° |
| 2026-04-26 23:42 | 25.06700 | 121.23148 | 418 ft | 164 kts | 227° |
| 2026-04-26 23:42 | 25.05195 | 121.21261 | 1870 ft | 164 kts | 229° |
| 2026-04-26 23:42 | 25.04420 | 121.20272 | 2320 ft | 180 kts | 230° |
| 2026-04-26 23:43 | 25.03548 | 121.19155 | 2644 ft | 205 kts | 229° |
| 2026-04-26 23:43 | 25.02579 | 121.17911 | 3275 ft | 218 kts | 230° |
| 2026-04-26 23:43 | 25.01872 | 121.16389 | 3789 ft | 242 kts | 262° |
| 2026-04-26 23:43 | 25.02129 | 121.14491 | 4297 ft | 264 kts | 294° |
| 2026-04-26 23:44 | 25.03044 | 121.12700 | 5145 ft | 272 kts | 304° |
| 2026-04-26 23:44 | 25.04143 | 121.10982 | 6088 ft | 276 kts | 306° |
| 2026-04-26 23:44 | 25.05265 | 121.09251 | 6996 ft | 279 kts | 305° |
| 2026-04-26 23:44 | 25.06358 | 121.07469 | 7912 ft | 282 kts | 303° |
| 2026-04-26 23:45 | 25.07408 | 121.05634 | 8786 ft | 285 kts | 301° |
| 2026-04-26 23:45 | 25.08429 | 121.03749 | 9625 ft | 288 kts | 300° |
| 2026-04-26 23:45 | 25.09438 | 121.01818 | 10311 ft | 296 kts | 300° |
| 2026-04-26 23:45 | 25.10496 | 120.99766 | 10533 ft | 318 kts | 299° |
| 2026-04-26 23:46 | 25.11484 | 120.97571 | 11001 ft | 328 kts | 288° |
| 2026-04-26 23:46 | 25.11793 | 120.95074 | 11633 ft | 333 kts | 266° |
| 2026-04-26 23:46 | 25.11249 | 120.92595 | 12320 ft | 336 kts | 245° |
| 2026-04-26 23:46 | 25.09914 | 120.90475 | 13020 ft | 341 kts | 226° |
| 2026-04-26 23:47 | 25.08218 | 120.88638 | 13746 ft | 342 kts | 225° |
| 2026-04-26 23:47 | 25.06506 | 120.86797 | 14388 ft | 345 kts | 225° |
| 2026-04-26 23:47 | 25.04784 | 120.84944 | 15021 ft | 347 kts | 225° |
| 2026-04-26 23:47 | 25.03050 | 120.83081 | 15658 ft | 349 kts | 225° |
| 2026-04-26 23:48 | 25.01307 | 120.81209 | 16294 ft | 351 kts | 225° |
| 2026-04-26 23:48 | 24.99555 | 120.79323 | 16924 ft | 353 kts | 225° |
| 2026-04-26 23:48 | 24.97815 | 120.77452 | 17547 ft | 355 kts | 225° |
| 2026-04-26 23:48 | 24.96039 | 120.75543 | 18171 ft | 358 kts | 225° |
| 2026-04-26 23:49 | 24.94250 | 120.73618 | 18736 ft | 360 kts | 225° |
| 2026-04-26 23:49 | 24.92450 | 120.71683 | 19280 ft | 363 kts | 225° |
| 2026-04-26 23:49 | 24.90638 | 120.69733 | 19836 ft | 366 kts | 225° |
| 2026-04-26 23:49 | 24.88811 | 120.67766 | 20394 ft | 369 kts | 226° |
| 2026-04-26 23:50 | 24.86970 | 120.65788 | 20952 ft | 371 kts | 226° |
| 2026-04-26 23:50 | 24.85109 | 120.63800 | 21507 ft | 374 kts | 226° |
| 2026-04-26 23:50 | 24.83258 | 120.61822 | 22047 ft | 377 kts | 226° |
| 2026-04-26 23:50 | 24.81374 | 120.59809 | 22598 ft | 380 kts | 226° |
| 2026-04-26 23:51 | 24.79466 | 120.57767 | 23155 ft | 383 kts | 226° |
| 2026-04-26 23:51 | 24.77548 | 120.55713 | 23683 ft | 386 kts | 226° |
| 2026-04-26 23:51 | 24.75616 | 120.53647 | 24142 ft | 389 kts | 226° |
| 2026-04-26 23:51 | 24.73666 | 120.51570 | 24601 ft | 391 kts | 225° |
| 2026-04-26 23:52 | 24.71515 | 120.49705 | 25049 ft | 397 kts | 218° |
| 2026-04-26 23:52 | 24.69243 | 120.47972 | 25492 ft | 399 kts | 218° |
| 2026-04-26 23:52 | 24.66951 | 120.46237 | 25937 ft | 401 kts | 218° |
| 2026-04-26 23:52 | 24.64677 | 120.44518 | 26364 ft | 404 kts | 218° |
| 2026-04-26 23:53 | 24.62357 | 120.42762 | 26787 ft | 406 kts | 218° |
| 2026-04-26 23:53 | 24.60021 | 120.40995 | 27204 ft | 408 kts | 218° |
| 2026-04-26 23:53 | 24.57677 | 120.39218 | 27598 ft | 411 kts | 218° |
| 2026-04-26 23:53 | 24.55317 | 120.37432 | 28010 ft | 413 kts | 218° |
| 2026-04-26 23:54 | 24.52938 | 120.35635 | 28406 ft | 416 kts | 218° |
| 2026-04-26 23:54 | 24.50545 | 120.33829 | 28810 ft | 419 kts | 218° |
| 2026-04-26 23:54 | 24.48139 | 120.32013 | 29202 ft | 421 kts | 218° |
| 2026-04-26 23:54 | 24.45717 | 120.30188 | 29592 ft | 424 kts | 218° |
| 2026-04-26 23:55 | 24.43288 | 120.28341 | 29974 ft | 426 kts | 218° |
| 2026-04-26 23:55 | 24.40891 | 120.26488 | 30310 ft | 429 kts | 219° |
| 2026-04-26 23:55 | 24.38456 | 120.24584 | 30625 ft | 431 kts | 219° |
| 2026-04-26 23:55 | 24.36011 | 120.22665 | 30943 ft | 433 kts | 219° |
| 2026-04-26 23:56 | 24.33551 | 120.20739 | 31254 ft | 436 kts | 219° |
| 2026-04-26 23:56 | 24.31073 | 120.18808 | 31571 ft | 438 kts | 219° |
| 2026-04-26 23:56 | 24.28592 | 120.16879 | 32013 ft | 437 kts | 219° |
| 2026-04-26 23:56 | 24.26117 | 120.14958 | 32465 ft | 435 kts | 219° |
| 2026-04-26 23:57 | 24.23646 | 120.13047 | 32917 ft | 434 kts | 219° |
| 2026-04-26 23:57 | 24.21178 | 120.11143 | 33369 ft | 434 kts | 219° |
| 2026-04-26 23:57 | 24.18747 | 120.09267 | 33819 ft | 433 kts | 219° |
| 2026-04-26 23:57 | 24.16291 | 120.07368 | 34239 ft | 432 kts | 219° |
| 2026-04-26 23:58 | 24.13843 | 120.05475 | 34638 ft | 430 kts | 219° |
| 2026-04-26 23:58 | 24.11404 | 120.03587 | 35038 ft | 429 kts | 219° |
| 2026-04-26 23:58 | 24.08972 | 120.01709 | 35431 ft | 427 kts | 219° |
| 2026-04-26 23:58 | 24.06550 | 119.99842 | 35822 ft | 425 kts | 219° |
| 2026-04-26 23:59 | 24.04133 | 119.97980 | 35996 ft | 425 kts | 219° |
| 2026-04-26 23:59 | 24.01729 | 119.96129 | 36033 ft | 421 kts | 219° |
| 2026-04-26 23:59 | 23.96956 | 119.92451 | 36034 ft | 419 kts | 219° |
| 2026-04-27 00:00 | 23.92231 | 119.88809 | 36033 ft | 418 kts | 219° |
| 2026-04-27 00:00 | 23.87476 | 119.85143 | 36033 ft | 418 kts | 219° |
| 2026-04-27 00:01 | 23.82719 | 119.81493 | 36032 ft | 418 kts | 219° |
| 2026-04-27 00:01 | 23.77962 | 119.77841 | 36030 ft | 418 kts | 219° |
| 2026-04-27 00:02 | 23.73205 | 119.74187 | 36045 ft | 418 kts | 219° |
| 2026-04-27 00:02 | 23.68471 | 119.70562 | 36055 ft | 418 kts | 219° |
| 2026-04-27 00:03 | 23.63706 | 119.66919 | 36056 ft | 418 kts | 219° |
| 2026-04-27 00:03 | 23.59285 | 119.62890 | 36056 ft | 411 kts | 232° |
| 2026-04-27 00:04 | 23.56098 | 119.57768 | 36054 ft | 408 kts | 240° |
| 2026-04-27 00:04 | 23.53097 | 119.52565 | 36055 ft | 408 kts | 240° |
| 2026-04-27 00:05 | 23.50062 | 119.47341 | 36048 ft | 408 kts | 240° |
| 2026-04-27 00:05 | 23.47022 | 119.42120 | 36052 ft | 408 kts | 240° |
| 2026-04-27 00:06 | 23.43992 | 119.36899 | 36049 ft | 408 kts | 240° |
| 2026-04-27 00:06 | 23.40960 | 119.31680 | 36046 ft | 408 kts | 240° |
| 2026-04-27 00:07 | 23.37942 | 119.26498 | 36043 ft | 408 kts | 240° |
| 2026-04-27 00:07 | 23.34906 | 119.21289 | 36046 ft | 408 kts | 239° |
| 2026-04-27 00:08 | 23.31862 | 119.16083 | 36046 ft | 408 kts | 239° |
| 2026-04-27 00:08 | 23.28840 | 119.10916 | 36048 ft | 407 kts | 239° |
| 2026-04-27 00:09 | 23.25800 | 119.05714 | 36050 ft | 407 kts | 239° |
| 2026-04-27 00:09 | 23.22763 | 119.00513 | 36048 ft | 407 kts | 239° |
| 2026-04-27 00:10 | 23.19717 | 118.95325 | 36051 ft | 407 kts | 239° |
| 2026-04-27 00:10 | 23.16694 | 118.90172 | 36052 ft | 406 kts | 239° |
| 2026-04-27 00:11 | 23.13658 | 118.84996 | 36052 ft | 406 kts | 239° |
| 2026-04-27 00:11 | 23.10619 | 118.79827 | 36051 ft | 406 kts | 239° |
| 2026-04-27 00:12 | 23.07585 | 118.74659 | 36048 ft | 406 kts | 239° |
| 2026-04-27 00:12 | 23.04565 | 118.69539 | 36047 ft | 405 kts | 239° |
| 2026-04-27 00:13 | 23.01526 | 118.64384 | 36043 ft | 405 kts | 239° |
| 2026-04-27 00:13 | 22.98611 | 118.59438 | 36045 ft | 405 kts | 239° |
| 2026-04-27 00:14 | 22.95572 | 118.54290 | 36044 ft | 405 kts | 239° |
| 2026-04-27 00:14 | 22.92524 | 118.49148 | 36046 ft | 405 kts | 239° |
| 2026-04-27 00:15 | 22.89500 | 118.44077 | 36044 ft | 405 kts | 239° |
| 2026-04-27 00:15 | 22.86435 | 118.38944 | 36043 ft | 405 kts | 239° |
| 2026-04-27 00:16 | 22.83375 | 118.33809 | 36044 ft | 405 kts | 239° |
| 2026-04-27 00:16 | 22.80311 | 118.28679 | 36045 ft | 405 kts | 239° |
| 2026-04-27 00:17 | 22.77276 | 118.23580 | 36043 ft | 405 kts | 239° |
| 2026-04-27 00:17 | 22.74215 | 118.18451 | 36041 ft | 405 kts | 239° |
| 2026-04-27 00:18 | 22.71147 | 118.13325 | 36042 ft | 405 kts | 239° |
| 2026-04-27 00:18 | 22.68071 | 118.08204 | 36042 ft | 405 kts | 239° |
| 2026-04-27 00:19 | 22.65020 | 118.03118 | 36041 ft | 406 kts | 239° |
| 2026-04-27 00:19 | 22.61942 | 117.98000 | 36042 ft | 406 kts | 239° |
| 2026-04-27 00:20 | 22.58867 | 117.92881 | 36042 ft | 406 kts | 240° |
| 2026-04-27 00:20 | 22.55822 | 117.87740 | 36042 ft | 406 kts | 240° |
| 2026-04-27 00:21 | 22.52784 | 117.82597 | 36043 ft | 406 kts | 240° |
| 2026-04-27 00:21 | 22.49753 | 117.77497 | 36042 ft | 406 kts | 240° |
| 2026-04-27 00:22 | 22.46691 | 117.72371 | 36042 ft | 406 kts | 240° |
| 2026-04-27 00:22 | 22.43632 | 117.67248 | 36045 ft | 406 kts | 240° |
| 2026-04-27 00:23 | 22.40576 | 117.62120 | 36045 ft | 406 kts | 240° |
| 2026-04-27 00:23 | 22.37538 | 117.57036 | 36045 ft | 405 kts | 239° |
| 2026-04-27 00:24 | 22.34619 | 117.51841 | 36041 ft | 403 kts | 248° |
| 2026-04-27 00:24 | 22.33272 | 117.46036 | 36041 ft | 400 kts | 267° |
| 2026-04-27 00:25 | 22.33166 | 117.40036 | 36046 ft | 400 kts | 268° |
| 2026-04-27 00:25 | 22.33055 | 117.34076 | 36050 ft | 400 kts | 268° |
| 2026-04-27 00:26 | 22.32944 | 117.28076 | 36051 ft | 400 kts | 268° |
| 2026-04-27 00:26 | 22.32837 | 117.22074 | 36055 ft | 400 kts | 268° |
| 2026-04-27 00:27 | 22.32721 | 117.16073 | 36057 ft | 399 kts | 268° |
| 2026-04-27 00:27 | 22.32602 | 117.10120 | 36059 ft | 399 kts | 268° |
| 2026-04-27 00:28 | 22.32485 | 117.04127 | 36058 ft | 399 kts | 268° |
| 2026-04-27 00:28 | 22.32371 | 116.98140 | 36059 ft | 399 kts | 268° |
| 2026-04-27 00:29 | 22.32245 | 116.92158 | 36058 ft | 398 kts | 268° |
| 2026-04-27 00:29 | 22.32122 | 116.86219 | 36057 ft | 398 kts | 268° |
| 2026-04-27 00:30 | 22.31995 | 116.80243 | 36055 ft | 398 kts | 268° |
| 2026-04-27 00:30 | 22.31868 | 116.74265 | 36060 ft | 398 kts | 268° |
| 2026-04-27 00:31 | 22.31733 | 116.68293 | 36055 ft | 398 kts | 268° |
| 2026-04-27 00:31 | 22.31598 | 116.62317 | 36059 ft | 398 kts | 268° |
| 2026-04-27 00:32 | 22.31465 | 116.56389 | 36059 ft | 398 kts | 268° |
| 2026-04-27 00:32 | 22.31326 | 116.50418 | 36059 ft | 398 kts | 268° |
| 2026-04-27 00:33 | 22.31190 | 116.44448 | 36059 ft | 398 kts | 268° |
| 2026-04-27 00:33 | 22.31050 | 116.38479 | 36054 ft | 398 kts | 268° |
| 2026-04-27 00:34 | 22.30899 | 116.32508 | 36059 ft | 398 kts | 267° |
| 2026-04-27 00:34 | 22.30753 | 116.26579 | 36054 ft | 398 kts | 268° |
| 2026-04-27 00:35 | 22.30607 | 116.20604 | 36053 ft | 398 kts | 267° |
| 2026-04-27 00:35 | 22.30458 | 116.14633 | 36053 ft | 398 kts | 267° |
| 2026-04-27 00:36 | 22.30310 | 116.08657 | 36054 ft | 398 kts | 267° |
| 2026-04-27 00:36 | 22.30157 | 116.02722 | 36054 ft | 398 kts | 267° |
| 2026-04-27 00:37 | 22.30002 | 115.96746 | 36046 ft | 398 kts | 267° |
| 2026-04-27 00:37 | 22.29841 | 115.90770 | 36048 ft | 398 kts | 267° |
| 2026-04-27 00:38 | 22.29668 | 115.84782 | 36034 ft | 400 kts | 267° |
| 2026-04-27 00:38 | 22.29493 | 115.78772 | 36031 ft | 401 kts | 267° |
| 2026-04-27 00:39 | 22.29275 | 115.72734 | 35345 ft | 407 kts | 266° |
| 2026-04-27 00:39 | 22.29155 | 115.69662 | 34334 ft | 410 kts | 266° |
| 2026-04-27 00:39 | 22.29035 | 115.66622 | 33269 ft | 411 kts | 266° |
| 2026-04-27 00:40 | 22.28915 | 115.63549 | 32304 ft | 408 kts | 266° |
| 2026-04-27 00:40 | 22.28798 | 115.60505 | 31420 ft | 404 kts | 266° |
| 2026-04-27 00:40 | 22.28685 | 115.57496 | 30561 ft | 399 kts | 266° |
| 2026-04-27 00:40 | 22.28575 | 115.54517 | 29673 ft | 394 kts | 266° |
| 2026-04-27 00:41 | 22.28468 | 115.51618 | 29273 ft | 378 kts | 266° |
| 2026-04-27 00:41 | 22.28365 | 115.48839 | 28903 ft | 363 kts | 266° |
| 2026-04-27 00:41 | 22.28265 | 115.46164 | 28550 ft | 350 kts | 266° |
| 2026-04-27 00:41 | 22.28166 | 115.43583 | 28211 ft | 337 kts | 266° |
| 2026-04-27 00:42 | 22.28069 | 115.41080 | 27884 ft | 333 kts | 266° |
| 2026-04-27 00:42 | 22.27970 | 115.38621 | 27547 ft | 331 kts | 266° |
| 2026-04-27 00:42 | 22.27869 | 115.36146 | 27209 ft | 330 kts | 266° |
| 2026-04-27 00:42 | 22.27770 | 115.33679 | 26865 ft | 328 kts | 266° |
| 2026-04-27 00:43 | 22.27673 | 115.31221 | 26499 ft | 327 kts | 266° |
| 2026-04-27 00:43 | 22.27576 | 115.28771 | 26157 ft | 326 kts | 266° |
| 2026-04-27 00:43 | 22.27478 | 115.26326 | 25805 ft | 326 kts | 266° |
| 2026-04-27 00:43 | 22.27379 | 115.23883 | 25444 ft | 326 kts | 266° |
| 2026-04-27 00:44 | 22.27280 | 115.21438 | 25075 ft | 326 kts | 266° |
| 2026-04-27 00:44 | 22.27189 | 115.19193 | 24731 ft | 326 kts | 267° |
| 2026-04-27 00:44 | 22.27089 | 115.16717 | 24347 ft | 326 kts | 267° |
| 2026-04-27 00:44 | 22.26958 | 115.14271 | 23965 ft | 326 kts | 262° |
| 2026-04-27 00:45 | 22.26555 | 115.11861 | 23534 ft | 327 kts | 259° |
| 2026-04-27 00:45 | 22.26122 | 115.09458 | 23068 ft | 327 kts | 259° |
| 2026-04-27 00:45 | 22.25698 | 115.07089 | 22652 ft | 325 kts | 259° |
| 2026-04-27 00:45 | 22.25270 | 115.04697 | 22238 ft | 324 kts | 259° |
| 2026-04-27 00:46 | 22.24844 | 115.02317 | 21812 ft | 323 kts | 259° |
| 2026-04-27 00:46 | 22.24418 | 114.99943 | 21408 ft | 322 kts | 259° |
| 2026-04-27 00:46 | 22.23991 | 114.97577 | 20985 ft | 321 kts | 259° |
| 2026-04-27 00:46 | 22.23570 | 114.95245 | 20585 ft | 321 kts | 259° |
| 2026-04-27 00:47 | 22.23188 | 114.92876 | 20172 ft | 321 kts | 264° |
| 2026-04-27 00:47 | 22.23129 | 114.90471 | 19764 ft | 321 kts | 269° |
| 2026-04-27 00:47 | 22.23109 | 114.88065 | 19348 ft | 321 kts | 268° |
| 2026-04-27 00:47 | 22.23086 | 114.85655 | 18940 ft | 321 kts | 268° |
| 2026-04-27 00:48 | 22.23057 | 114.83241 | 18523 ft | 322 kts | 268° |
| 2026-04-27 00:48 | 22.23026 | 114.80825 | 18078 ft | 323 kts | 268° |
| 2026-04-27 00:48 | 22.22996 | 114.78404 | 17649 ft | 322 kts | 268° |
| 2026-04-27 00:48 | 22.22968 | 114.75992 | 17238 ft | 321 kts | 268° |
| 2026-04-27 00:49 | 22.22942 | 114.73621 | 16832 ft | 320 kts | 268° |
| 2026-04-27 00:49 | 22.22915 | 114.71224 | 16424 ft | 319 kts | 268° |
| 2026-04-27 00:49 | 22.22887 | 114.68833 | 16018 ft | 318 kts | 268° |
| 2026-04-27 00:49 | 22.22859 | 114.66447 | 15621 ft | 318 kts | 268° |
| 2026-04-27 00:50 | 22.22830 | 114.64065 | 15224 ft | 317 kts | 267° |
| 2026-04-27 00:50 | 22.22765 | 114.59304 | 14427 ft | 317 kts | 267° |
| 2026-04-27 00:50 | 22.22736 | 114.56923 | 14027 ft | 317 kts | 267° |
| 2026-04-27 00:51 | 22.22708 | 114.54553 | 13722 ft | 314 kts | 267° |
| 2026-04-27 00:51 | 22.22678 | 114.52249 | 13482 ft | 309 kts | 267° |
| 2026-04-27 00:51 | 22.22647 | 114.49938 | 13227 ft | 308 kts | 267° |
| 2026-04-27 00:51 | 22.22616 | 114.47632 | 12973 ft | 306 kts | 267° |
| 2026-04-27 00:52 | 22.22584 | 114.45338 | 12714 ft | 305 kts | 267° |
| 2026-04-27 00:52 | 22.22552 | 114.43050 | 12468 ft | 304 kts | 267° |
| 2026-04-27 00:52 | 22.22518 | 114.40769 | 12211 ft | 303 kts | 267° |
| 2026-04-27 00:52 | 22.22486 | 114.38498 | 11959 ft | 302 kts | 267° |
| 2026-04-27 00:53 | 22.22454 | 114.36235 | 11710 ft | 301 kts | 267° |
| 2026-04-27 00:53 | 22.22423 | 114.33979 | 11459 ft | 300 kts | 267° |
| 2026-04-27 00:53 | 22.22392 | 114.31730 | 11212 ft | 299 kts | 267° |
| 2026-04-27 00:53 | 22.22360 | 114.29524 | 10967 ft | 298 kts | 267° |
| 2026-04-27 00:54 | 22.22328 | 114.27294 | 10721 ft | 297 kts | 267° |
| 2026-04-27 00:54 | 22.22294 | 114.25068 | 10475 ft | 296 kts | 267° |
| 2026-04-27 00:54 | 22.22259 | 114.22845 | 10227 ft | 296 kts | 267° |
| 2026-04-27 00:54 | 22.22224 | 114.20632 | 9987 ft | 295 kts | 268° |
| 2026-04-27 00:55 | 22.22192 | 114.18434 | 9731 ft | 291 kts | 268° |
| 2026-04-27 00:55 | 22.22161 | 114.16271 | 9481 ft | 286 kts | 267° |
| 2026-04-27 00:55 | 22.22129 | 114.14149 | 9247 ft | 280 kts | 267° |
| 2026-04-27 00:55 | 22.22097 | 114.12062 | 9015 ft | 276 kts | 268° |
| 2026-04-27 00:56 | 22.22065 | 114.10007 | 8785 ft | 272 kts | 267° |
| 2026-04-27 00:56 | 22.22032 | 114.08010 | 8567 ft | 268 kts | 267° |
| 2026-04-27 00:56 | 22.22000 | 114.06014 | 8344 ft | 264 kts | 268° |
| 2026-04-27 00:56 | 22.21967 | 114.04053 | 8126 ft | 259 kts | 268° |
| 2026-04-27 00:57 | 22.21906 | 114.02129 | 7942 ft | 253 kts | 262° |
| 2026-04-27 00:57 | 22.21579 | 114.00299 | 7787 ft | 245 kts | 251° |
| 2026-04-27 00:57 | 22.20966 | 113.98621 | 7638 ft | 236 kts | 242° |
| 2026-04-27 00:57 | 22.20129 | 113.97140 | 7497 ft | 227 kts | 232° |
| 2026-04-27 00:58 | 22.19113 | 113.95879 | 7371 ft | 219 kts | 223° |
| 2026-04-27 00:58 | 22.18118 | 113.94636 | 7375 ft | 218 kts | 240° |
| 2026-04-27 00:58 | 22.17917 | 113.93049 | 7193 ft | 224 kts | 286° |
| 2026-04-27 00:58 | 22.18653 | 113.91581 | 7003 ft | 220 kts | 299° |
| 2026-04-27 00:59 | 22.19669 | 113.90309 | 6789 ft | 228 kts | 328° |
| 2026-04-27 00:59 | 22.21180 | 113.89906 | 6625 ft | 228 kts | 358° |
| 2026-04-27 00:59 | 22.22782 | 113.89886 | 6311 ft | 232 kts | 0° |
| 2026-04-27 00:59 | 22.24377 | 113.89986 | 6134 ft | 227 kts | 6° |
| 2026-04-27 01:00 | 22.25938 | 113.90266 | 6063 ft | 228 kts | 17° |
| 2026-04-27 01:00 | 22.27324 | 113.91059 | 5901 ft | 226 kts | 38° |
| 2026-04-27 01:00 | 22.28571 | 113.92122 | 5499 ft | 232 kts | 39° |
| 2026-04-27 01:00 | 22.29650 | 113.93377 | 5114 ft | 233 kts | 56° |
| 2026-04-27 01:01 | 22.30584 | 113.94825 | 4782 ft | 234 kts | 58° |
| 2026-04-27 01:01 | 22.31454 | 113.96288 | 4595 ft | 228 kts | 60° |
| 2026-04-27 01:01 | 22.32275 | 113.97734 | 4349 ft | 221 kts | 61° |
| 2026-04-27 01:01 | 22.33027 | 113.99126 | 4063 ft | 209 kts | 63° |
| 2026-04-27 01:02 | 22.33698 | 114.00463 | 3942 ft | 200 kts | 66° |
| 2026-04-27 01:02 | 22.34059 | 114.01894 | 3758 ft | 198 kts | 82° |
| 2026-04-27 01:02 | 22.34196 | 114.03357 | 3461 ft | 189 kts | 89° |
| 2026-04-27 01:02 | 22.34203 | 114.04711 | 3182 ft | 170 kts | 92° |
| 2026-04-27 01:03 | 22.34234 | 114.05924 | 2841 ft | 158 kts | 90° |
| 2026-04-27 01:03 | 22.34213 | 114.07066 | 2692 ft | 148 kts | 97° |
| 2026-04-27 01:03 | 22.34119 | 114.08147 | 2527 ft | 142 kts | 98° |
| 2026-04-27 01:03 | 22.34029 | 114.09203 | 2358 ft | 141 kts | 98° |
| 2026-04-27 01:04 | 22.33918 | 114.10237 | 2257 ft | 140 kts | 98° |
| 2026-04-27 01:04 | 22.33842 | 114.11273 | 2294 ft | 138 kts | 96° |
| 2026-04-27 01:04 | 22.33775 | 114.12309 | 2194 ft | 137 kts | 97° |
| 2026-04-27 01:04 | 22.33649 | 114.13313 | 1987 ft | 134 kts | 100° |
| 2026-04-27 01:05 | 22.33485 | 114.14284 | 1728 ft | 132 kts | 98° |
| 2026-04-27 01:05 | 22.33394 | 114.15261 | 1487 ft | 131 kts | 95° |
| 2026-04-27 01:05 | 22.33326 | 114.16241 | 1220 ft | 131 kts | 94° |
| 2026-04-27 01:05 | 22.33269 | 114.17228 | 869 ft | 131 kts | 95° |
| 2026-04-27 01:06 | 22.33158 | 114.18205 | 437 ft | 131 kts | 103° |
| 2026-04-27 01:06 | 22.32709 | 114.19047 | 220 ft | 132 kts | 128° |
| 2026-04-27 01:06 | 22.32079 | 114.19755 | 50 ft | 125 kts | 132° |
| 2026-04-27 01:06 | 22.31559 | 114.20342 | 40 ft | 86 kts | 134° |
| 2026-04-27 01:07 | 22.31263 | 114.20672 | 39 ft | 46 kts | 133° |
| 2026-04-27 01:07 | 22.31032 | 114.20932 | 40 ft | 48 kts | 134° |
| 2026-04-27 01:07 | 22.30893 | 114.21097 | 40 ft | 25 kts | 125° |
| 2026-04-27 01:07 | 22.30833 | 114.21233 | 40 ft | 16 kts | 88° |
| 2026-04-27 01:08 | 22.30891 | 114.21246 | 40 ft | 0 kts | 314° |
| 2026-04-27 01:08 | 22.30908 | 114.21226 | 39 ft | 13 kts | 313° |
| 2026-04-27 01:09 | 22.31007 | 114.21110 | 39 ft | 25 kts | 314° |
| 2026-04-27 01:09 | 22.31135 | 114.20969 | 38 ft | 28 kts | 314° |
| 2026-04-27 01:09 | 22.31276 | 114.20810 | 38 ft | 31 kts | 314° |
| 2026-04-27 01:09 | 22.31430 | 114.20638 | 40 ft | 34 kts | 314° |
| 2026-04-27 01:10 | 22.31599 | 114.20450 | 40 ft | 36 kts | 314° |
| 2026-04-27 01:10 | 22.31770 | 114.20257 | 40 ft | 33 kts | 314° |
| 2026-04-27 01:10 | 22.31928 | 114.20082 | 39 ft | 31 kts | 314° |
| 2026-04-27 01:10 | 22.32078 | 114.19913 | 41 ft | 32 kts | 314° |
| 2026-04-27 01:11 | 22.32227 | 114.19747 | 41 ft | 29 kts | 315° |
| 2026-04-27 01:11 | 22.32337 | 114.19629 | 41 ft | 19 kts | 316° |
| 2026-04-27 01:11 | 22.32438 | 114.19528 | 41 ft | 19 kts | 318° |
| 2026-04-27 01:11 | 22.32540 | 114.19429 | 41 ft | 16 kts | 317° |
| 2026-04-27 01:12 | 22.32625 | 114.19433 | 41 ft | 15 kts | 44° |
| 2026-04-27 01:12 | 22.32705 | 114.19521 | 41 ft | 14 kts | 44° |
| 2026-04-27 01:12 | 22.32755 | 114.19537 | 40 ft | 8 kts | 318° |
| 2026-04-27 01:12 | 22.32788 | 114.19500 | 39 ft | 3 kts | 314° |
| 2026-04-27 01:13 | 22.32799 | 114.19488 | 41 ft | 0 kts | 314° |